Sebastian, FL

6:18 PM EDT on August 28, 2015 (GMT -0400)
OZWORLD - *Sebastian Highlands* - | | Change Station
CLOSE
Current Station
Personal Weather Station
Location: Sebastian, FL
Elevation: 23 ft
Nearby Weather Stations

Elev 23 ft 27.80 °N, 80.48 °W | Updated 21 seconds ago

Rain
Rain
78.1 °F
Feels Like 81 °F
N
0.0
Wind Variable Wind from South
Gusts 0.0 mph

Today
High -- | Low -- °F
--% Chance of Precip.
Yesterday
High -- | Low -- °F
Precip. -- in
6:58 AM 7:47 PM
Waxing Gibbous, 99% visible
Pressure 30.01 in
Visibility 6.0 miles
Clouds Mostly Cloudy 11000 ft
Heat Index 81 °F
Dew Point 77 °F
Humidity 96%
Rainfall 0.18 in
Snow Depth Not available.
UV 1 out of 12
Pollen 6.70 out of 12
Air Quality Not available.
Flu Activity Not available.
METAR KVRB 282153Z AUTO 08003KT 6SM -RA BR BKN110 27/25 A3001 RMK AO2 RAB20 SLP160 P0005 T02720250
Pressure 30.01 in
Visibility 6.0 miles
Clouds Mostly Cloudy 11000 ft
Heat Index 81 °F
Dew Point 77 °F
Humidity 96%
Rainfall 0.18 in
Snow Depth Not available.
UV 1 out of 12
Pollen 6.70 out of 12
Air Quality Not available.
Flu Activity Not available.
METAR KVRB 282153Z AUTO 08003KT 6SM -RA BR BKN110 27/25 A3001 RMK AO2 RAB20 SLP160 P0005 T02720250
Erika has become very unorganized in the face of strong wind shear in the eastern Caribbean Sea. The storm will pass directly over mountainous Hispaniola today, likely weakening it further. If the storm remains intact, it could reach an area favorable for strengthening before moving onto Florida by early next week. Follow the live blog

10-Day Weather Forecast

×

Almanac

Astronomy

Aug. 28, 2015 Rise Set
Actual Time
Civil Twilight
Nautical Twilight
Astronomical Twilight
Moon
Length of Visible Light
Length of Day
Tomorrow will be .
, % of the Moon is Illuminated

Today's Extremes

State Highs State Lows

Community

WunderPhotos

Upload Photos

1,850,515 photos uploaded!

WunderBlogs® & News

Nearby

Air Quality

  Air Quality AQ Index Pollutant
Not available.

Snow Depth

Station Depth Elevation

Earthquake Activity

City Distance Mag. Time & Date
Minimum magnitude displayed is 2.5.

Coastal Water Temperatures

Place Temperature

Stations

Nearby Weather Stations

Station Location Temp. Windchill Dew Point Humidity Wind Precip. Elev Updated Type